Time;durP1;ratioP1;P1;durP2;ratioP2;P2;SDS_P1;SDS_P2;PMS_P1;PMS_P2;Temp;Humidity;BMP_temperature;BMP_pressure;BME280_temperature;BME280_humidity;BME280_pressure;Samples;Min_cycle;Max_cycle;Signal;HPM_P1;HPM_P2
2023/06/03 00:02:15;;;;;;;10.82;4.00;;;;;;;10.80;86.13;99624.03;5100662;28;21518;-63
2023/06/03 00:04:43;;;;;;;8.90;3.75;;;;;;;10.72;86.32;99619.84;5130299;27;20055;-63
2023/06/03 00:07:11;;;;;;;7.88;3.70;;;;;;;10.66;86.35;99615.44;5101614;28;20096;-63
2023/06/03 00:09:39;;;;;;;13.43;4.30;;;;;;;10.54;86.69;99626.16;5100453;28;20540;-64
2023/06/03 00:12:07;;;;;;;8.48;3.95;;;;;;;10.51;87.38;99629.31;5095472;28;20063;-63
2023/06/03 00:14:34;;;;;;;15.07;4.03;;;;;;;10.51;87.74;99626.63;5107192;28;20054;-63
2023/06/03 00:17:01;;;;;;;10.07;3.90;;;;;;;10.54;88.91;99623.47;5099297;28;20047;-63
2023/06/03 00:19:31;;;;;;;11.32;4.38;;;;;;;10.42;87.42;99630.69;5100637;28;20088;-64
2023/06/03 00:22:00;;;;;;;12.60;4.75;;;;;;;10.38;87.57;99617.97;5099513;28;20036;-63
2023/06/03 00:24:27;;;;;;;13.18;4.50;;;;;;;10.24;87.99;99620.03;5097989;28;20070;-63
2023/06/03 00:26:55;;;;;;;10.52;4.00;;;;;;;10.26;89.00;99617.91;5091857;28;20052;-67
2023/06/03 00:29:22;;;;;;;9.82;4.47;;;;;;;10.20;88.49;99629.56;5101572;28;20047;-65
2023/06/03 00:31:49;;;;;;;11.57;4.38;;;;;;;10.10;89.08;99617.53;5099836;28;20071;-65
2023/06/03 00:34:17;;;;;;;11.38;4.55;;;;;;;10.18;88.95;99618.25;5095484;28;20040;-65
2023/06/03 00:36:46;;;;;;;9.52;3.97;;;;;;;10.17;88.50;99612.09;5098281;28;20528;-64
2023/06/03 00:39:13;;;;;;;11.10;4.32;;;;;;;10.23;88.31;99621.06;5099205;28;20039;-64
2023/06/03 00:41:41;;;;;;;8.82;4.10;;;;;;;10.25;87.89;99618.97;5096549;28;20083;-64
2023/06/03 00:44:08;;;;;;;8.65;4.03;;;;;;;10.21;88.38;99617.78;5097141;28;20126;-64
2023/06/03 00:46:36;;;;;;;8.70;3.88;;;;;;;10.13;88.70;99617.13;5103378;28;20063;-64
2023/06/03 00:49:04;;;;;;;9.95;4.13;;;;;;;10.17;89.96;99612.09;5102514;28;20059;-64
2023/06/03 00:51:31;;;;;;;10.20;4.18;;;;;;;10.22;88.29;99614.91;5097742;28;20039;-64
2023/06/03 00:54:00;;;;;;;12.07;4.05;;;;;;;10.14;88.67;99613.38;5097551;28;20040;-64
2023/06/03 00:56:28;;;;;;;10.15;4.13;;;;;;;10.21;90.75;99612.44;5099812;28;20142;-64
2023/06/03 00:58:56;;;;;;;7.05;3.60;;;;;;;10.34;88.99;99609.59;5098538;28;20047;-64
2023/06/03 01:01:24;;;;;;;10.60;3.97;;;;;;;10.48;89.10;99610.19;5103148;28;20051;-64
2023/06/03 01:03:51;;;;;;;11.00;4.20;;;;;;;10.42;88.56;99609.25;5102191;28;20040;-64
2023/06/03 01:06:22;;;;;;;11.05;3.95;;;;;;;10.34;87.85;99612.28;5099327;28;20134;-64
2023/06/03 01:08:54;;;;;;;9.77;4.32;;;;;;;10.51;88.42;99613.22;5097842;28;20105;-64
2023/06/03 01:11:34;;;;;;;13.43;3.88;;;;;;;10.24;87.54;99607.44;5078442;28;20142;-65
2023/06/03 01:14:05;;;;;;;10.68;4.30;;;;;;;10.18;88.84;99604.88;5097832;28;20505;-65
2023/06/03 01:16:32;;;;;;;8.77;4.20;;;;;;;10.10;89.01;99611.38;5104820;28;20051;-64
2023/06/03 01:19:00;;;;;;;12.80;4.82;;;;;;;9.97;90.00;99609.72;5101526;28;20044;-64
2023/06/03 01:21:34;;;;;;;6.82;3.80;;;;;;;9.98;90.32;99597.16;5095896;28;20051;-64
2023/06/03 01:24:04;;;;;;;9.85;3.85;;;;;;;9.91;89.56;99599.94;5101468;28;20043;-64
2023/06/03 01:26:31;;;;;;;9.27;4.72;;;;;;;9.94;90.55;99599.47;5102255;28;20043;-64
2023/06/03 01:28:58;;;;;;;11.30;4.05;;;;;;;9.86;92.68;99599.78;5106528;28;20116;-64
2023/06/03 01:31:26;;;;;;;10.35;4.50;;;;;;;10.05;91.53;99604.03;5100565;28;20042;-64
2023/06/03 01:33:55;;;;;;;9.30;4.25;;;;;;;9.91;91.46;99591.91;5098635;28;20047;-64
2023/06/03 01:36:23;;;;;;;9.75;4.38;;;;;;;9.91;91.47;99594.59;5097709;28;20048;-64
2023/06/03 01:38:51;;;;;;;11.65;4.78;;;;;;;9.87;92.34;99596.88;5098126;28;20028;-64
2023/06/03 01:41:20;;;;;;;10.95;4.60;;;;;;;9.83;91.25;99594.91;5104434;28;20047;-64
2023/06/03 01:43:47;;;;;;;11.98;4.88;;;;;;;9.97;93.67;99588.31;5102155;28;20559;-64
2023/06/03 01:46:15;;;;;;;9.73;4.78;;;;;;;9.91;90.50;99589.22;5098354;28;20497;-64
2023/06/03 01:48:42;;;;;;;10.15;4.43;;;;;;;9.81;91.04;99596.97;5100379;28;20381;-64
2023/06/03 01:51:10;;;;;;;11.55;4.57;;;;;;;9.67;91.80;99596.38;5102507;28;20054;-64
2023/06/03 01:53:38;;;;;;;7.95;4.82;;;;;;;9.63;92.06;99596.00;5101671;28;20144;-65
2023/06/03 01:56:06;;;;;;;13.13;4.70;;;;;;;9.60;92.37;99588.41;5081331;28;20043;-64
2023/06/03 01:58:36;;;;;;;12.27;4.93;;;;;;;9.62;92.90;99593.56;5094809;28;20044;-64
2023/06/03 02:01:03;;;;;;;10.45;4.53;;;;;;;9.57;93.34;99590.75;5096074;28;20096;-64
2023/06/03 02:03:31;;;;;;;12.27;4.43;;;;;;;9.47;93.34;99585.94;5101797;28;20039;-64
2023/06/03 02:05:59;;;;;;;10.30;4.70;;;;;;;9.42;94.57;99578.59;5098161;28;20079;-64
2023/06/03 02:08:27;;;;;;;9.57;4.82;;;;;;;9.54;93.88;99575.97;5104470;28;20047;-64
2023/06/03 02:10:56;;;;;;;12.65;4.60;;;;;;;9.49;93.91;99579.31;5103511;28;20039;-64
2023/06/03 02:13:24;;;;;;;10.57;4.68;;;;;;;9.39;94.39;99583.56;5096859;28;20071;-64
2023/06/03 02:15:53;;;;;;;12.50;4.85;;;;;;;9.39;94.24;99584.38;5101456;28;20763;-64
2023/06/03 02:18:20;;;;;;;11.02;5.65;;;;;;;9.21;95.53;99582.56;5095855;28;20044;-64
2023/06/03 02:20:48;;;;;;;12.18;4.70;;;;;;;9.27;95.70;99581.66;5092905;28;21023;-65
2023/06/03 02:23:16;;;;;;;10.00;5.22;;;;;;;9.20;96.64;99578.25;5105942;28;20042;-64
2023/06/03 02:25:45;;;;;;;8.45;4.80;;;;;;;9.06;96.91;99574.94;5102515;28;20410;-62
2023/06/03 02:28:16;;;;;;;13.52;5.00;;;;;;;9.05;97.02;99583.16;5101014;28;20449;-65
2023/06/03 02:30:44;;;;;;;14.65;4.70;;;;;;;8.97;97.26;99581.59;5096348;28;20048;-64
2023/06/03 02:33:12;;;;;;;10.07;5.13;;;;;;;8.99;97.98;99576.84;5096677;28;20048;-63
2023/06/03 02:35:40;;;;;;;8.68;4.97;;;;;;;8.96;97.69;99573.78;5093482;28;20051;-65
2023/06/03 02:38:07;;;;;;;8.90;4.85;;;;;;;8.90;99.42;99580.84;5100628;28;20051;-62
2023/06/03 02:40:35;;;;;;;9.10;5.38;;;;;;;9.00;100.00;99580.34;5100596;28;20515;-65
2023/06/03 02:43:03;;;;;;;11.13;4.82;;;;;;;8.62;98.00;99586.72;5099954;28;20516;-65
2023/06/03 02:45:31;;;;;;;13.65;5.15;;;;;;;8.67;100.00;99584.19;5105159;28;20040;-64
2023/06/03 02:48:00;;;;;;;10.70;4.97;;;;;;;8.70;100.00;99586.41;5099452;28;20529;-64
2023/06/03 02:50:29;;;;;;;12.02;5.20;;;;;;;8.88;100.00;99582.13;5091554;28;20071;-64
2023/06/03 02:52:57;;;;;;;11.40;5.30;;;;;;;8.77;100.00;99592.50;5103715;28;20059;-63
2023/06/03 02:55:27;;;;;;;10.15;5.18;;;;;;;8.84;100.00;99582.56;5101261;28;20057;-65
2023/06/03 02:57:55;;;;;;;12.75;5.25;;;;;;;8.80;100.00;99594.72;5097448;28;20039;-64
2023/06/03 03:00:22;;;;;;;12.82;5.30;;;;;;;8.84;98.73;99597.81;5106418;28;20039;-65
2023/06/03 03:02:52;;;;;;;9.68;5.07;;;;;;;8.71;97.42;99604.09;5106331;28;20114;-64
2023/06/03 03:05:20;;;;;;;13.80;6.53;;;;;;;8.51;98.54;99598.09;5106703;28;20048;-64
2023/06/03 03:07:49;;;;;;;9.15;5.22;;;;;;;8.46;97.89;99598.75;5103780;28;20051;-64
2023/06/03 03:10:17;;;;;;;9.25;5.13;;;;;;;8.53;100.00;99604.06;5102487;28;20059;-64
2023/06/03 03:12:44;;;;;;;12.82;5.25;;;;;;;8.73;100.00;99610.03;5097759;28;20187;-64
2023/06/03 03:15:12;;;;;;;10.52;5.80;;;;;;;8.46;100.00;99611.31;5108194;28;20063;-64
2023/06/03 03:17:39;;;;;;;17.60;5.78;;;;;;;8.58;100.00;99614.91;5106163;28;20119;-63
2023/06/03 03:20:08;;;;;;;12.13;5.47;;;;;;;8.39;100.00;99611.34;5107302;28;20047;-64
2023/06/03 03:22:36;;;;;;;10.25;5.40;;;;;;;8.59;100.00;99611.22;5097784;28;20040;-64
2023/06/03 03:25:06;;;;;;;10.57;5.40;;;;;;;8.50;100.00;99609.84;5099820;28;20058;-64
2023/06/03 03:27:34;;;;;;;8.27;5.65;;;;;;;8.57;100.00;99623.97;5103827;28;20048;-64
2023/06/03 03:30:02;;;;;;;13.60;5.80;;;;;;;8.54;100.00;99629.75;5104735;28;20048;-63
2023/06/03 03:32:31;;;;;;;8.48;5.20;;;;;;;8.50;100.00;99617.84;5133959;27;20053;-64
2023/06/03 03:35:15;;;;;;;12.13;5.40;;;;;;;8.61;100.00;99625.97;5106523;28;20442;-64
2023/06/03 03:37:44;;;;;;;11.07;4.63;;;;;;;9.09;97.63;99621.78;5096907;28;20067;-64
2023/06/03 03:40:18;;;;;;;12.52;4.97;;;;;;;9.45;94.57;99620.13;5105078;28;20051;-64
2023/06/03 03:42:50;;;;;;;12.38;4.80;;;;;;;10.10;91.91;99624.78;5108137;28;20036;-64
2023/06/03 03:45:20;;;;;;;19.63;4.88;;;;;;;10.05;91.01;99630.00;5104177;28;20047;-64
2023/06/03 03:47:49;;;;;;;8.35;4.45;;;;;;;10.46;86.15;99626.50;5101629;28;20052;-63
2023/06/03 03:50:39;;;;;;;8.32;4.30;;;;;;;11.11;81.56;99622.06;5103707;28;20036;-63
2023/06/03 03:53:07;;;;;;;9.48;4.40;;;;;;;11.80;79.19;99630.09;5102666;28;20131;-62
2023/06/03 03:55:39;;;;;;;12.68;4.40;;;;;;;12.02;76.59;99627.56;5106283;28;20040;-63
2023/06/03 03:58:08;;;;;;;9.15;4.28;;;;;;;12.23;73.67;99623.34;5107457;28;20568;-63
2023/06/03 04:00:36;;;;;;;8.88;4.20;;;;;;;12.69;73.46;99632.97;5101309;28;20089;-63
2023/06/03 04:03:04;;;;;;;13.05;4.05;;;;;;;12.81;74.84;99640.13;5103127;28;20468;-63
2023/06/03 04:05:31;;;;;;;9.80;4.25;;;;;;;13.74;70.22;99638.38;5105173;28;20040;-63
2023/06/03 04:07:59;;;;;;;10.15;4.03;;;;;;;14.35;67.07;99648.94;5106588;28;20155;-63
2023/06/03 04:10:26;;;;;;;10.60;4.25;;;;;;;14.63;65.81;99645.13;5088103;28;20032;-64
2023/06/03 04:12:55;;;;;;;8.52;3.80;;;;;;;14.54;66.29;99637.78;5094071;28;20050;-63
2023/06/03 04:15:30;;;;;;;9.90;3.85;;;;;;;15.60;61.99;99642.13;5105821;28;20105;-64
2023/06/03 04:17:58;;;;;;;5.40;3.50;;;;;;;16.06;59.14;99647.66;5102798;28;20048;-64
2023/06/03 04:20:40;;;;;;;8.77;3.72;;;;;;;16.13;57.68;99645.50;5099505;28;20058;-63
2023/06/03 04:23:13;;;;;;;9.05;4.03;;;;;;;14.65;61.12;99644.84;5099263;28;20063;-63
2023/06/03 04:25:43;;;;;;;6.88;3.38;;;;;;;15.43;61.72;99650.44;5105494;28;20047;-65
2023/06/03 04:28:13;;;;;;;8.65;3.67;;;;;;;17.11;54.77;99648.16;5104065;28;20079;-64
2023/06/03 04:30:41;;;;;;;6.57;3.67;;;;;;;16.80;54.75;99654.47;5104660;28;20172;-63
2023/06/03 04:33:09;;;;;;;7.07;3.30;;;;;;;17.28;52.92;99653.25;5104598;28;20178;-63
2023/06/03 04:35:37;;;;;;;15.90;3.83;;;;;;;17.28;51.36;99659.47;5095239;28;20043;-63
2023/06/03 04:38:05;;;;;;;9.25;4.13;;;;;;;18.01;51.14;99658.06;5095001;28;20804;-64
2023/06/03 04:40:33;;;;;;;7.22;3.55;;;;;;;17.93;50.87;99653.25;5097874;28;20055;-64
2023/06/03 04:43:03;;;;;;;8.63;3.60;;;;;;;19.33;48.30;99647.94;5104028;28;20056;-63
2023/06/03 04:45:34;;;;;;;6.60;3.55;;;;;;;18.83;48.08;99654.75;5104654;28;20051;-64
2023/06/03 04:48:03;;;;;;;8.93;3.67;;;;;;;18.82;48.92;99642.25;5091656;28;20607;-64
2023/06/03 04:50:34;;;;;;;10.48;4.07;;;;;;;19.36;47.19;99649.25;5104978;28;20092;-63
2023/06/03 04:53:03;;;;;;;11.02;4.28;;;;;;;19.09;48.16;99645.22;5096412;28;20066;-64
2023/06/03 04:55:31;;;;;;;7.03;3.20;;;;;;;20.22;45.98;99638.31;5100245;28;20046;-63
2023/06/03 04:58:02;;;;;;;9.90;3.47;;;;;;;18.98;48.32;99641.00;5106338;28;20096;-64
2023/06/03 05:00:32;;;;;;;7.28;3.40;;;;;;;19.93;46.25;99644.72;5104901;28;20134;-64
2023/06/03 05:03:08;;;;;;;9.75;3.45;;;;;;;20.51;45.40;99640.03;5105788;28;20043;-64
2023/06/03 05:05:42;;;;;;;7.03;3.85;;;;;;;20.88;44.65;99641.84;5104296;28;20089;-64
2023/06/03 05:08:10;;;;;;;10.50;3.60;;;;;;;20.52;45.37;99641.63;5094718;28;20046;-63
2023/06/03 05:10:38;;;;;;;8.30;3.70;;;;;;;20.54;44.67;99639.41;5102834;28;20542;-63
2023/06/03 05:13:06;;;;;;;7.22;3.70;;;;;;;21.19;44.10;99639.34;5102834;28;20097;-63
2023/06/03 05:15:37;;;;;;;8.67;3.53;;;;;;;22.03;42.77;99643.56;5101463;28;20071;-63
2023/06/03 05:18:07;;;;;;;12.02;3.72;;;;;;;22.18;42.15;99640.47;5115623;27;20333;-63
2023/06/03 05:20:35;;;;;;;10.05;3.40;;;;;;;22.43;41.80;99635.56;5097058;28;20039;-63
2023/06/03 05:23:03;;;;;;;12.63;3.97;;;;;;;22.09;42.35;99645.09;5091922;28;20040;-63
2023/06/03 05:25:31;;;;;;;9.18;3.60;;;;;;;22.99;39.99;99636.88;5079204;28;20097;-64
2023/06/03 05:27:58;;;;;;;7.53;3.30;;;;;;;22.10;41.50;99637.69;5099377;28;20485;-63
2023/06/03 05:30:26;;;;;;;10.20;3.30;;;;;;;21.56;41.47;99644.91;5088161;28;20047;-64
2023/06/03 05:32:54;;;;;;;6.53;3.17;;;;;;;22.68;40.33;99638.75;5098365;28;20044;-63
2023/06/03 05:35:23;;;;;;;8.63;3.03;;;;;;;22.64;39.67;99640.50;5100583;28;20055;-64
2023/06/03 05:37:52;;;;;;;10.15;3.35;;;;;;;23.01;39.49;99648.28;5100903;28;20885;-63
2023/06/03 05:40:19;;;;;;;8.27;3.17;;;;;;;22.70;40.56;99644.72;5104887;28;20075;-64
2023/06/03 05:42:47;;;;;;;11.00;3.35;;;;;;;22.89;40.21;99637.09;5095460;28;20040;-63
2023/06/03 05:45:16;;;;;;;7.55;3.20;;;;;;;22.37;40.29;99642.28;5104430;28;20054;-64
2023/06/03 05:47:44;;;;;;;7.38;3.35;;;;;;;22.66;40.03;99639.06;5099127;28;20123;-63
2023/06/03 05:50:13;;;;;;;8.73;2.97;;;;;;;22.36;40.91;99640.63;5092489;28;20122;-63
2023/06/03 05:52:42;;;;;;;8.50;2.85;;;;;;;22.52;41.30;99638.34;5103941;28;20085;-63
2023/06/03 05:55:11;;;;;;;7.60;3.10;;;;;;;22.13;41.59;99643.34;5103723;28;20036;-63
2023/06/03 05:57:40;;;;;;;;;;;;;;;22.10;42.40;99643.16;5083147;28;20446;-64
2023/06/03 06:00:09;;;;;;;;;;;;;;;22.60;40.67;99643.84;5100603;28;19923;-63
2023/06/03 06:02:41;;;;;;;8.02;3.03;;;;;;;24.89;37.19;99640.03;5095065;28;19924;-62
2023/06/03 06:05:09;;;;;;;10.70;2.92;;;;;;;23.84;38.66;99633.88;5101630;28;20039;-62
2023/06/03 06:07:37;;;;;;;9.30;3.20;;;;;;;24.37;36.27;99639.34;5100544;28;20101;-62
2023/06/03 06:10:06;;;;;;;6.15;2.78;;;;;;;22.87;38.40;99641.28;5093104;28;20166;-62
2023/06/03 06:12:34;;;;;;;5.38;2.70;;;;;;;21.81;39.91;99644.34;5103184;28;20031;-62
2023/06/03 06:15:02;;;;;;;9.20;2.63;;;;;;;24.24;36.80;99639.19;5080616;28;20139;-62
2023/06/03 06:17:31;;;;;;;7.47;2.28;;;;;;;23.30;37.38;99633.25;5101285;28;20036;-62
2023/06/03 06:20:02;;;;;;;8.75;2.45;;;;;;;24.83;35.86;99640.53;5097879;28;20493;-62
2023/06/03 06:22:32;;;;;;;4.68;2.33;;;;;;;23.74;36.17;99645.16;5103828;28;20097;-62
2023/06/03 06:25:00;;;;;;;9.68;2.58;;;;;;;25.28;33.96;99637.31;5106546;28;20043;-62
2023/06/03 06:27:31;;;;;;;7.20;2.70;;;;;;;23.42;37.16;99638.13;5099513;28;20126;-62
2023/06/03 06:29:59;;;;;;;5.18;2.60;;;;;;;24.30;34.92;99643.38;5105311;28;20493;-63
2023/06/03 06:32:27;;;;;;;6.03;2.38;;;;;;;25.50;33.69;99642.50;5108775;28;20051;-62
2023/06/03 06:34:56;;;;;;;7.28;2.40;;;;;;;24.48;33.97;99646.09;5101581;28;20051;-62
2023/06/03 06:37:24;;;;;;;6.20;2.50;;;;;;;22.97;35.40;99641.00;5104591;28;20044;-62
2023/06/03 06:39:53;;;;;;;5.10;2.47;;;;;;;21.30;37.99;99648.13;5107250;28;20039;-62
2023/06/03 06:42:37;;;;;;;4.78;2.40;;;;;;;23.63;34.55;99643.78;5084092;28;20036;-62
2023/06/03 06:45:16;;;;;;;6.30;2.17;;;;;;;23.27;34.55;99642.09;5106358;28;20055;-62
2023/06/03 06:47:46;;;;;;;9.90;2.40;;;;;;;24.16;34.11;99639.19;5105527;28;20066;-63
2023/06/03 06:50:34;;;;;;;8.00;3.05;;;;;;;24.24;33.00;99646.63;5102934;28;20054;-62
2023/06/03 06:53:02;;;;;;;5.97;2.17;;;;;;;23.57;34.26;99645.09;5096227;28;20405;-63
2023/06/03 06:55:41;;;;;;;9.25;2.38;;;;;;;23.75;33.78;99641.28;5103375;28;20451;-62
2023/06/03 06:58:11;;;;;;;8.35;2.50;;;;;;;21.51;36.20;99641.16;5095651;28;20509;-62
2023/06/03 07:00:39;;;;;;;5.43;2.35;;;;;;;21.92;36.20;99637.56;5099136;28;20052;-62
2023/06/03 07:03:08;;;;;;;6.07;2.30;;;;;;;22.31;35.85;99646.22;5111057;27;20058;-62
2023/06/03 07:05:36;;;;;;;8.65;2.45;;;;;;;21.24;36.38;99635.69;5086328;28;20068;-62
2023/06/03 07:08:04;;;;;;;6.85;2.55;;;;;;;24.21;33.58;99633.53;5108726;28;20079;-63
2023/06/03 07:10:32;;;;;;;6.30;2.08;;;;;;;22.17;36.01;99649.00;5086117;28;20036;-62
2023/06/03 07:13:00;;;;;;;4.53;2.10;;;;;;;23.28;35.21;99631.97;5104518;28;20536;-62
2023/06/03 07:15:30;;;;;;;9.68;2.42;;;;;;;23.55;33.83;99625.44;5107857;27;20071;-63
2023/06/03 07:17:57;;;;;;;;;;;;;;;22.66;34.44;99630.06;5098847;28;20474;-63
2023/06/03 07:20:30;;;;;;;4.75;2.30;;;;;;;23.32;34.15;99639.22;5103747;28;19962;-63
2023/06/03 07:22:59;;;;;;;4.40;2.10;;;;;;;22.21;35.72;99633.63;5102456;28;20066;-63
2023/06/03 07:25:32;;;;;;;5.35;2.20;;;;;;;22.23;35.24;99641.53;5102451;28;20036;-63
2023/06/03 07:27:59;;;;;;;7.03;2.05;;;;;;;21.94;35.93;99650.88;5100082;28;20058;-63
2023/06/03 07:30:27;;;;;;;6.70;2.70;;;;;;;21.12;37.09;99641.69;5095254;28;20043;-63
2023/06/03 07:33:02;;;;;;;8.25;2.40;;;;;;;22.48;36.40;99638.16;5098307;28;20067;-63
2023/06/03 07:35:30;;;;;;;7.75;2.40;;;;;;;22.35;35.30;99656.22;5097726;28;20056;-63
2023/06/03 07:37:57;;;;;;;8.77;2.33;;;;;;;22.48;35.57;99649.09;5095374;28;20055;-63
2023/06/03 07:40:29;;;;;;;5.97;2.28;;;;;;;22.54;35.23;99642.38;5099303;28;20566;-63
2023/06/03 07:42:57;;;;;;;5.72;2.40;;;;;;;22.89;35.47;99642.56;5101857;28;20052;-63
2023/06/03 07:45:24;;;;;;;5.05;2.25;;;;;;;22.97;35.03;99636.38;5100452;28;20047;-63
2023/06/03 07:47:52;;;;;;;6.38;2.38;;;;;;;22.75;35.04;99639.13;5100215;28;20582;-63
2023/06/03 07:50:24;;;;;;;4.75;2.40;;;;;;;23.78;33.56;99651.56;5094122;28;20139;-63
2023/06/03 07:52:59;;;;;;;7.10;2.50;;;;;;;21.84;36.09;99662.03;5106131;28;20040;-63
2023/06/03 07:55:27;;;;;;;8.50;2.30;;;;;;;22.11;35.56;99653.75;5098852;28;20482;-63
2023/06/03 07:57:55;;;;;;;7.20;2.38;;;;;;;21.38;36.84;99654.78;5103428;28;20143;-63
2023/06/03 08:00:22;;;;;;;10.10;2.90;;;;;;;23.58;34.10;99652.94;5097730;28;20052;-63
2023/06/03 08:02:50;;;;;;;8.15;2.92;;;;;;;22.61;35.08;99650.94;5096901;28;20054;-63
2023/06/03 08:05:17;;;;;;;4.20;2.20;;;;;;;24.68;33.00;99653.63;5099015;28;20085;-63
2023/06/03 08:07:46;;;;;;;4.75;2.22;;;;;;;24.22;33.12;99651.59;5095966;28;20112;-63
2023/06/03 08:10:24;;;;;;;5.40;2.15;;;;;;;23.12;34.55;99650.75;5103433;28;20547;-63
2023/06/03 08:12:51;;;;;;;9.07;2.90;;;;;;;22.51;34.68;99651.19;5103220;28;20044;-63
2023/06/03 08:15:26;;;;;;;7.00;2.40;;;;;;;22.75;34.69;99652.78;5098970;28;20056;-63
2023/06/03 08:17:53;;;;;;;10.70;2.45;;;;;;;21.52;37.02;99655.63;5108084;28;20389;-63
2023/06/03 08:20:24;;;;;;;8.50;2.70;;;;;;;22.58;35.63;99645.28;5102779;28;20067;-63
2023/06/03 08:22:53;;;;;;;7.30;2.50;;;;;;;23.57;34.47;99656.03;5103455;28;20059;-63
2023/06/03 08:25:21;;;;;;;4.05;2.08;;;;;;;21.85;36.22;99652.75;5103521;28;20040;-62
2023/06/03 08:27:49;;;;;;;6.82;2.00;;;;;;;21.33;37.68;99651.03;5100542;28;20165;-63
2023/06/03 08:30:16;;;;;;;5.85;2.30;;;;;;;21.46;37.06;99651.38;5099031;28;20052;-63
2023/06/03 08:32:45;;;;;;;5.18;2.38;;;;;;;21.08;37.75;99643.38;5102269;28;20084;-63
2023/06/03 08:35:13;;;;;;;5.78;2.25;;;;;;;22.67;36.42;99639.88;5087721;27;20323;-63
2023/06/03 08:37:41;;;;;;;5.10;2.42;;;;;;;21.37;37.40;99647.72;5100500;28;20036;-62
2023/06/03 08:40:11;;;;;;;6.22;2.35;;;;;;;22.80;35.44;99636.25;5101950;28;20074;-63
2023/06/03 08:42:42;;;;;;;6.50;2.22;;;;;;;23.23;35.51;99646.59;5095808;28;20048;-63
2023/06/03 08:45:10;;;;;;;6.82;2.40;;;;;;;23.41;35.62;99637.34;5097450;28;20051;-63
2023/06/03 08:47:48;;;;;;;6.25;2.40;;;;;;;21.90;37.15;99645.25;5096925;28;20044;-63
2023/06/03 08:50:17;;;;;;;4.35;2.30;;;;;;;22.39;36.52;99640.03;5100617;28;20058;-62
2023/06/03 08:52:46;;;;;;;6.93;2.50;;;;;;;21.67;36.90;99649.03;5099601;28;20053;-63
2023/06/03 08:55:17;;;;;;;6.57;2.40;;;;;;;23.73;34.72;99649.00;5097241;28;20138;-63
2023/06/03 08:57:46;;;;;;;8.00;2.42;;;;;;;22.06;36.15;99648.41;5098479;28;20039;-63
2023/06/03 09:00:14;;;;;;;6.15;2.20;;;;;;;23.82;34.48;99638.88;5097838;28;20039;-64
2023/06/03 09:02:42;;;;;;;6.80;2.40;;;;;;;21.99;36.57;99639.88;5097869;28;20490;-62
2023/06/03 09:05:09;;;;;;;6.43;2.50;;;;;;;20.96;38.26;99641.13;5098166;28;20067;-63
2023/06/03 09:07:37;;;;;;;4.05;2.47;;;;;;;22.24;36.22;99637.66;5100594;28;20302;-63
2023/06/03 09:10:05;;;;;;;5.72;2.40;;;;;;;20.86;38.52;99644.88;5100502;28;20047;-63
2023/06/03 09:12:34;;;;;;;8.00;2.60;;;;;;;20.78;39.07;99637.41;5103701;28;20035;-63
2023/06/03 09:15:01;;;;;;;5.27;2.33;;;;;;;21.79;37.54;99643.03;5103323;28;20059;-63
2023/06/03 09:17:29;;;;;;;5.75;2.30;;;;;;;21.03;38.50;99638.84;5099455;28;20051;-63
2023/06/03 09:20:01;;;;;;;5.55;2.25;;;;;;;21.87;38.20;99636.88;5102927;28;20051;-63
2023/06/03 09:22:28;;;;;;;6.22;2.63;;;;;;;21.47;38.47;99625.75;5092583;28;20103;-63
2023/06/03 09:24:56;;;;;;;4.80;2.42;;;;;;;22.41;36.83;99637.78;5103207;28;20071;-63
2023/06/03 09:27:24;;;;;;;6.13;2.33;;;;;;;21.54;37.92;99637.03;5094805;28;20047;-63
2023/06/03 09:29:53;;;;;;;5.97;2.63;;;;;;;22.89;35.99;99639.00;5104757;28;20457;-62
2023/06/03 09:32:21;;;;;;;5.85;2.50;;;;;;;22.05;36.80;99640.56;5099999;28;20043;-62
2023/06/03 09:34:50;;;;;;;7.75;2.50;;;;;;;22.71;37.13;99630.72;5106006;28;20043;-62
2023/06/03 09:37:17;;;;;;;3.93;2.30;;;;;;;22.25;36.31;99642.03;5098178;28;20052;-62
2023/06/03 09:39:45;;;;;;;7.65;3.03;;;;;;;22.07;38.36;99639.13;5106182;28;20618;-62
2023/06/03 09:42:12;;;;;;;8.15;2.60;;;;;;;21.68;37.94;99637.00;5102550;28;20111;-62
2023/06/03 09:44:41;;;;;;;7.32;2.55;;;;;;;21.23;39.18;99632.19;5098346;27;20051;-62
2023/06/03 09:47:11;;;;;;;10.27;2.90;;;;;;;20.09;40.36;99641.78;5096253;28;20452;-62
2023/06/03 09:49:38;;;;;;;5.50;2.47;;;;;;;20.85;39.91;99635.09;5096766;28;20048;-62
2023/06/03 09:52:09;;;;;;;5.90;2.40;;;;;;;21.98;38.54;99621.88;5097581;28;20052;-62
2023/06/03 09:54:36;;;;;;;9.25;3.03;;;;;;;20.80;39.32;99648.81;5101441;28;20521;-62
2023/06/03 09:57:10;;;;;;;6.13;2.60;;;;;;;21.19;39.44;99635.81;5098129;28;20500;-62
2023/06/03 09:59:38;;;;;;;6.03;2.80;;;;;;;21.26;39.22;99630.75;5104498;28;20040;-62
2023/06/03 10:02:11;;;;;;;12.13;3.80;;;;;;;21.31;39.36;99631.44;5093910;28;20067;-62
2023/06/03 10:04:39;;;;;;;10.57;2.72;;;;;;;20.24;40.01;99634.19;5096754;28;20139;-61
2023/06/03 10:07:11;;;;;;;5.65;2.50;;;;;;;21.26;39.97;99636.22;5098852;28;20437;-62
2023/06/03 10:09:38;;;;;;;7.57;2.60;;;;;;;21.72;37.87;99641.56;5097163;28;20134;-62
2023/06/03 10:12:07;;;;;;;4.82;2.60;;;;;;;20.53;40.38;99630.44;5099950;28;20086;-62
2023/06/03 10:14:34;;;;;;;5.30;2.80;;;;;;;20.70;40.27;99631.84;5096205;28;20441;-62
2023/06/03 10:17:03;;;;;;;7.55;2.70;;;;;;;21.35;40.19;99628.16;5100985;28;20390;-62
2023/06/03 10:19:34;;;;;;;6.00;2.80;;;;;;;21.32;39.08;99629.56;5100497;28;20076;-62
2023/06/03 10:22:02;;;;;;;8.20;3.00;;;;;;;21.55;38.79;99625.00;5097601;28;20167;-62
2023/06/03 10:24:31;;;;;;;5.65;2.70;;;;;;;21.03;39.49;99622.47;5092384;28;20123;-62
2023/06/03 10:26:58;;;;;;;4.75;2.65;;;;;;;21.87;39.18;99617.78;5097331;28;20036;-61
2023/06/03 10:29:26;;;;;;;9.00;3.38;;;;;;;22.06;38.30;99637.50;5098801;28;22253;-62
2023/06/03 10:31:54;;;;;;;7.80;3.28;;;;;;;20.81;40.30;99625.09;5094317;28;20380;-62
2023/06/03 10:34:22;;;;;;;6.80;2.67;;;;;;;21.38;40.12;99617.44;5095953;28;20569;-61
2023/06/03 10:36:57;;;;;;;4.63;3.00;;;;;;;21.27;39.61;99622.28;5101425;28;20103;-62
2023/06/03 10:39:25;;;;;;;9.95;3.10;;;;;;;20.72;40.22;99616.81;5101009;28;20073;-61
2023/06/03 10:41:54;;;;;;;7.38;2.88;;;;;;;21.56;38.73;99626.63;5097750;28;20071;-62
2023/06/03 10:44:21;;;;;;;7.75;2.90;;;;;;;21.46;39.98;99607.75;5093782;28;20405;-62
2023/06/03 10:46:55;;;;;;;7.15;2.90;;;;;;;21.97;39.01;99606.63;5092703;28;20054;-62
2023/06/03 10:49:23;;;;;;;4.10;2.63;;;;;;;21.02;40.02;99622.81;5100194;28;20055;-62
2023/06/03 10:52:00;;;;;;;7.20;2.80;;;;;;;21.30;40.00;99621.69;5102095;28;20073;-62
2023/06/03 10:54:33;;;;;;;7.20;2.70;;;;;;;21.11;40.11;99626.41;5092748;28;20056;-63
2023/06/03 10:57:06;;;;;;;7.65;2.80;;;;;;;20.97;39.73;99629.16;5096439;28;20051;-63
2023/06/03 10:59:44;;;;;;;5.15;3.03;;;;;;;20.75;39.26;99626.31;5093194;28;20433;-63
2023/06/03 11:02:11;;;;;;;7.25;3.03;;;;;;;21.24;38.59;99614.72;5100600;28;20506;-64
2023/06/03 11:04:39;;;;;;;5.68;2.67;;;;;;;20.85;39.45;99616.03;5100399;28;20039;-63
2023/06/03 11:07:38;;;;;;;5.70;2.70;;;;;;;21.07;40.13;99611.81;5107188;28;20050;-63
2023/06/03 11:10:24;;;;;;;4.97;2.97;;;;;;;20.74;39.81;99627.38;5099524;28;20056;-63
2023/06/03 11:12:51;;;;;;;9.25;3.20;;;;;;;21.04;38.30;99615.09;5106239;28;20036;-63
2023/06/03 11:15:19;;;;;;;7.60;2.88;;;;;;;21.20;38.76;99613.72;5096318;28;20058;-63
2023/06/03 11:18:14;;;;;;;7.28;2.85;;;;;;;21.41;38.89;99626.94;5101006;28;20051;-63
2023/06/03 11:20:41;;;;;;;5.72;2.90;;;;;;;20.86;39.31;99616.81;5098519;28;20046;-64
2023/06/03 11:23:10;;;;;;;4.78;2.85;;;;;;;21.41;39.06;99611.38;5106127;28;20077;-63
2023/06/03 11:25:38;;;;;;;6.78;3.20;;;;;;;21.51;38.98;99604.91;5095388;28;20044;-63
2023/06/03 11:28:41;;;;;;;6.63;2.92;;;;;;;21.32;38.26;99600.38;5099974;28;20145;-64
2023/06/03 11:31:11;;;;;;;6.55;3.10;;;;;;;21.43;39.12;99611.91;5103506;28;20067;-63
2023/06/03 11:33:39;;;;;;;4.78;3.00;;;;;;;21.53;38.66;99610.88;5099042;28;20056;-64
2023/06/03 11:36:57;;;;;;;4.90;3.15;;;;;;;21.54;38.85;99599.66;5100550;28;20144;-64
2023/06/03 11:39:26;;;;;;;6.88;3.22;;;;;;;21.22;39.43;99597.88;5100508;28;20035;-61
2023/06/03 11:42:08;;;;;;;7.07;2.95;;;;;;;21.50;39.46;99601.38;5094946;28;20382;-63
2023/06/03 11:44:36;;;;;;;4.72;2.60;;;;;;;21.89;39.15;99596.41;5095655;28;20051;-63